createdAt,value
2018-06-03T00:00:55.286Z,31.80
2018-06-03T00:03:24.799Z,31.10
2018-06-03T00:05:53.762Z,33.60
2018-06-03T00:08:22.677Z,32.83
2018-06-03T00:10:51.246Z,30.90
2018-06-03T00:13:19.879Z,31.80
2018-06-03T00:15:49.459Z,31.17
2018-06-03T00:18:18.951Z,31.67
2018-06-03T00:21:14.266Z,29.80
2018-06-03T00:23:43.875Z,30.80
2018-06-03T00:26:12.987Z,31.27
2018-06-03T00:28:42.478Z,31.50
2018-06-03T00:31:11.739Z,31.53
2018-06-03T00:33:40.881Z,30.60
2018-06-03T00:36:22.366Z,31.37
2018-06-03T00:38:51.575Z,32.33
2018-06-03T00:41:20.851Z,31.47
2018-06-03T00:43:50.331Z,32.07
2018-06-03T00:46:19.471Z,32.63
2018-06-03T00:48:49.458Z,32.67
2018-06-03T00:51:18.719Z,32.60
2018-06-03T00:53:48.051Z,30.50
2018-06-03T00:56:29.259Z,31.87
2018-06-03T00:58:58.791Z,32.40
2018-06-03T01:01:29.015Z,32.33
2018-06-03T01:03:58.302Z,32.53
2018-06-03T01:06:27.806Z,32.80
2018-06-03T01:08:57.082Z,33.10
2018-06-03T01:11:27.058Z,33.77
2018-06-03T01:13:56.080Z,33.17
2018-06-03T01:16:25.435Z,34.60
2018-06-03T01:18:54.610Z,33.93
2018-06-03T01:21:23.722Z,33.40
2018-06-03T01:23:54.238Z,34.90
2018-06-03T01:26:24.360Z,32.90
2018-06-03T01:28:53.663Z,33.50
2018-06-03T01:31:22.835Z,36.50
2018-06-03T01:33:52.060Z,34.97
2018-06-03T01:36:22.161Z,33.30
2018-06-03T01:38:52.071Z,35.10
2018-06-03T01:41:20.801Z,35.10
2018-06-03T01:43:50.303Z,35.00
2018-06-03T01:46:19.302Z,33.97
2018-06-03T01:48:48.333Z,34.80
2018-06-03T01:51:17.473Z,35.90
2018-06-03T01:53:46.984Z,34.90
2018-06-03T01:56:17.356Z,34.83
2018-06-03T01:58:46.815Z,35.00
2018-06-03T02:01:15.836Z,38.10
2018-06-03T02:03:45.675Z,38.20
2018-06-03T02:06:15.961Z,36.50
2018-06-03T02:08:45.860Z,37.27
2018-06-03T02:11:14.969Z,40.37
2018-06-03T02:13:45.007Z,37.63
2018-06-03T02:16:14.204Z,35.50
2018-06-03T02:18:44.180Z,37.60
2018-06-03T02:21:15.286Z,35.77
2018-06-03T02:23:44.237Z,38.70
2018-06-03T02:26:13.344Z,37.13
2018-06-03T02:28:43.483Z,38.90
2018-06-03T02:31:12.579Z,40.60
2018-06-03T02:33:42.445Z,41.07
2018-06-03T02:36:11.999Z,41.03
2018-06-03T02:38:41.993Z,40.80
2018-06-03T02:41:11.829Z,43.53
2018-06-03T02:43:40.754Z,43.50
2018-06-03T02:46:09.764Z,41.67
2018-06-03T02:48:40.066Z,41.50
2018-06-03T02:51:09.066Z,41.00
2018-06-03T02:53:38.910Z,43.23
2018-06-03T02:56:08.114Z,42.00
2018-06-03T02:58:38.518Z,42.50
2018-06-03T03:01:07.461Z,42.13
2018-06-03T03:03:36.612Z,41.73
2018-06-03T03:06:05.863Z,40.73
2018-06-03T03:08:35.723Z,43.97
2018-06-03T03:11:05.066Z,43.27
2018-06-03T03:13:34.046Z,43.00
2018-06-03T03:16:04.026Z,38.53
2018-06-03T03:18:34.334Z,39.23
2018-06-03T03:21:03.623Z,40.10
2018-06-03T03:23:32.845Z,40.57
2018-06-03T03:26:02.162Z,40.63
2018-06-03T03:28:32.098Z,41.80
2018-06-03T03:31:01.956Z,39.40
2018-06-03T03:33:31.330Z,39.30
2018-06-03T03:36:00.262Z,39.73
2018-06-03T03:38:29.329Z,36.40
2018-06-03T03:40:58.618Z,38.60
2018-06-03T03:43:27.559Z,39.90
2018-06-03T03:45:57.389Z,36.63
2018-06-03T03:48:27.153Z,38.33
2018-06-03T03:50:56.073Z,34.90
2018-06-03T03:53:24.999Z,36.03
2018-06-03T03:55:54.118Z,34.43
2018-06-03T03:58:23.177Z,36.27
2018-06-03T04:00:53.955Z,33.23
2018-06-03T04:03:23.252Z,34.53
2018-06-03T04:05:52.589Z,34.63
2018-06-03T04:08:21.687Z,33.20
2018-06-03T04:10:52.874Z,32.33
2018-06-03T04:13:21.914Z,31.93
2018-06-03T04:15:51.066Z,32.10
2018-06-03T04:18:20.690Z,31.10
2018-06-03T04:20:49.831Z,32.83
2018-06-03T04:23:19.586Z,30.73
2018-06-03T04:25:49.590Z,30.20
2018-06-03T04:28:18.695Z,30.80
2018-06-03T04:30:48.447Z,31.37
2018-06-03T04:33:17.675Z,28.90
2018-06-03T04:35:46.930Z,27.97
2018-06-03T04:38:16.028Z,30.00
2018-06-03T04:40:45.577Z,26.77
2018-06-03T04:43:14.610Z,26.37
2018-06-03T04:45:44.472Z,26.37
2018-06-03T04:48:14.026Z,27.47
2018-06-03T04:50:43.018Z,28.30
2018-06-03T04:53:12.196Z,26.43
2018-06-03T04:55:41.598Z,26.07
2018-06-03T04:58:11.467Z,26.30
2018-06-03T05:00:40.498Z,25.60
2018-06-03T05:03:10.150Z,26.40
2018-06-03T05:05:39.158Z,24.40
2018-06-03T05:08:08.160Z,24.33
2018-06-03T05:10:37.699Z,23.12
2018-06-03T05:13:06.404Z,23.77
2018-06-03T05:15:35.502Z,25.00
2018-06-03T05:18:05.730Z,21.02
2018-06-03T05:20:34.926Z,23.20
2018-06-03T05:23:04.891Z,23.45
2018-06-03T05:25:34.830Z,24.70
2018-06-03T05:28:03.749Z,24.53
2018-06-03T05:30:32.780Z,29.08
2018-06-03T05:33:02.314Z,29.00
2018-06-03T05:35:31.303Z,29.00
2018-06-03T05:38:00.347Z,28.67
2018-06-03T05:40:29.942Z,27.58
2018-06-03T05:42:58.965Z,24.80
2018-06-03T05:45:28.069Z,25.65
2018-06-03T05:47:57.559Z,26.15
2018-06-03T05:50:26.646Z,25.90
2018-06-03T05:52:56.657Z,23.00
2018-06-03T05:55:25.786Z,23.45
2018-06-03T05:57:54.882Z,23.08
2018-06-03T06:00:32.024Z,21.60
2018-06-03T06:03:01.172Z,22.05
2018-06-03T06:05:31.181Z,21.00
2018-06-03T06:08:00.481Z,20.55
2018-06-03T06:10:29.654Z,19.52
2018-06-03T06:12:59.675Z,17.90
2018-06-03T06:15:29.078Z,19.58
2018-06-03T06:17:58.287Z,16.48
2018-06-03T06:20:27.314Z,16.02
2018-06-03T06:22:56.650Z,18.85
2018-06-03T06:25:25.662Z,17.85
2018-06-03T06:27:54.598Z,17.80
2018-06-03T06:30:24.677Z,17.23
2018-06-03T06:32:54.685Z,18.40
2018-06-03T06:35:23.999Z,16.52
2018-06-03T06:37:54.011Z,17.60
2018-06-03T06:40:23.207Z,17.20
2018-06-03T06:42:52.418Z,16.25
2018-06-03T06:45:22.846Z,14.38
2018-06-03T06:47:52.136Z,16.98
2018-06-03T06:50:21.562Z,16.85
2018-06-03T06:52:51.675Z,16.75
2018-06-03T06:55:20.851Z,15.38
2018-06-03T06:57:49.976Z,16.00
2018-06-03T07:00:19.281Z,16.87
2018-06-03T07:02:49.290Z,17.20
2018-06-03T07:05:18.390Z,16.92
2018-06-03T07:07:49.560Z,16.70
2018-06-03T07:10:19.559Z,18.40
2018-06-03T07:12:48.780Z,17.12
2018-06-03T07:15:19.662Z,17.37
2018-06-03T07:17:49.043Z,15.40
2018-06-03T07:20:18.190Z,26.37
2018-06-03T07:22:47.451Z,31.37
2018-06-03T07:25:16.693Z,30.92
2018-06-03T07:27:45.992Z,34.22
2018-06-03T07:30:15.576Z,32.45
2018-06-03T07:32:44.846Z,33.65
2018-06-03T07:35:13.917Z,33.67
2018-06-03T07:37:44.320Z,31.60
2018-06-03T07:40:13.406Z,31.33
2018-06-03T07:42:42.550Z,33.75
2018-06-03T07:45:11.704Z,32.00
2018-06-03T07:47:40.831Z,33.80
2018-06-03T07:50:10.775Z,32.05
2018-06-03T07:52:40.313Z,33.15
2018-06-03T07:55:10.233Z,31.80
2018-06-03T07:57:39.520Z,33.90
2018-06-03T08:00:10.001Z,32.72
2018-06-03T08:02:39.100Z,32.28
2018-06-03T08:05:09.006Z,33.67
2018-06-03T08:07:38.419Z,32.10
2018-06-03T08:10:09.611Z,33.15
2018-06-03T08:12:39.029Z,35.50
2018-06-03T08:15:08.185Z,34.17
2018-06-03T08:17:37.287Z,38.13
2018-06-03T08:20:07.104Z,38.33
2018-06-03T08:22:36.166Z,38.73
2018-06-03T08:25:06.431Z,41.80
2018-06-03T08:27:35.702Z,41.63
2018-06-03T08:30:04.725Z,44.10
2018-06-03T08:32:33.720Z,39.73
2018-06-03T08:35:03.960Z,43.20
2018-06-03T08:37:34.100Z,41.63
2018-06-03T08:40:03.399Z,40.50
2018-06-03T08:42:32.549Z,41.17
2018-06-03T08:45:01.724Z,41.30
2018-06-03T08:47:32.145Z,40.00
2018-06-03T08:50:01.352Z,39.40
2018-06-03T08:52:30.666Z,40.20
2018-06-03T08:55:00.235Z,40.63
2018-06-03T08:57:29.137Z,42.40
2018-06-03T08:59:58.091Z,41.10
2018-06-03T09:02:27.303Z,39.63
2018-06-03T09:04:56.368Z,38.80
2018-06-03T09:07:25.429Z,39.43
2018-06-03T09:09:54.931Z,39.37
2018-06-03T09:12:26.600Z,41.93
2018-06-03T09:14:55.916Z,40.83
2018-06-03T09:17:25.162Z,39.60
2018-06-03T09:19:54.407Z,39.93
2018-06-03T09:22:23.913Z,38.20
2018-06-03T09:24:53.922Z,37.67
2018-06-03T09:27:22.955Z,39.70
2018-06-03T09:29:52.339Z,38.13
2018-06-03T09:32:21.463Z,40.47
2018-06-03T09:34:50.454Z,40.63
2018-06-03T09:37:19.597Z,42.80
2018-06-03T09:39:48.597Z,41.20
2018-06-03T09:42:17.803Z,42.13
2018-06-03T09:44:47.733Z,43.43
2018-06-03T09:47:16.830Z,41.23
2018-06-03T09:49:46.569Z,41.67
2018-06-03T09:52:16.799Z,43.47
2018-06-03T09:54:45.861Z,41.57
2018-06-03T09:57:15.832Z,42.20
2018-06-03T09:59:45.202Z,40.37
2018-06-03T10:02:14.298Z,42.47
2018-06-03T10:04:43.478Z,40.17
2018-06-03T10:07:12.942Z,39.07
2018-06-03T10:09:41.811Z,41.93
2018-06-03T10:12:10.912Z,36.90
2018-06-03T10:14:42.419Z,37.83
2018-06-03T10:17:11.542Z,36.70
2018-06-03T10:19:40.653Z,34.83
2018-06-03T10:22:10.058Z,35.33
2018-06-03T10:24:40.053Z,32.73
2018-06-03T10:27:09.295Z,36.30
2018-06-03T10:29:38.741Z,36.30
2018-06-03T10:32:07.742Z,36.30
2018-06-03T10:34:36.875Z,38.07
2018-06-03T10:37:07.534Z,37.90
2018-06-03T10:39:36.661Z,38.20
2018-06-03T10:42:05.950Z,37.67
2018-06-03T10:44:35.587Z,38.87
2018-06-03T10:47:05.743Z,39.83
2018-06-03T10:49:35.026Z,40.87
2018-06-03T10:52:04.351Z,41.97
2018-06-03T10:54:34.239Z,45.73
2018-06-03T10:57:03.506Z,46.27
2018-06-03T10:59:32.851Z,42.00
2018-06-03T11:02:02.022Z,43.93
2018-06-03T11:04:31.123Z,42.80
2018-06-03T11:07:01.655Z,43.60
2018-06-03T11:09:30.746Z,44.10
2018-06-03T11:12:00.744Z,43.30
2018-06-03T11:14:30.171Z,44.43
2018-06-03T11:17:01.007Z,47.47
2018-06-03T11:19:30.044Z,46.33
2018-06-03T11:21:59.262Z,42.03
2018-06-03T11:24:28.484Z,43.50
2018-06-03T11:26:57.763Z,43.20
2018-06-03T11:29:27.032Z,45.20
2018-06-03T11:31:56.136Z,42.50
2018-06-03T11:34:25.307Z,39.20
2018-06-03T11:36:54.657Z,39.47
2018-06-03T11:39:23.694Z,40.73
2018-06-03T11:41:53.726Z,39.90
2018-06-03T11:44:22.926Z,39.73
2018-06-03T11:46:51.934Z,40.07
2018-06-03T11:49:22.566Z,40.90
2018-06-03T11:51:51.667Z,37.70
2018-06-03T11:54:20.762Z,37.73
2018-06-03T11:57:00.054Z,40.07
2018-06-03T11:59:39.904Z,40.47
2018-06-03T12:02:09.164Z,41.30
2018-06-03T12:04:38.875Z,40.20
2018-06-03T12:07:08.623Z,41.73
2018-06-03T12:09:38.080Z,39.90
2018-06-03T12:12:07.254Z,39.10
2018-06-03T12:14:36.549Z,40.03
2018-06-03T12:17:07.465Z,39.70
2018-06-03T12:19:36.646Z,38.43
2018-06-03T12:22:05.769Z,39.33
2018-06-03T12:24:35.403Z,38.27
2018-06-03T12:27:05.475Z,40.50
2018-06-03T12:29:34.677Z,35.60
2018-06-03T12:32:04.331Z,39.53
2018-06-03T12:34:33.432Z,37.53
2018-06-03T12:37:03.790Z,38.37
2018-06-03T12:39:34.726Z,37.13
2018-06-03T12:42:03.896Z,37.50
2018-06-03T12:44:33.393Z,38.73
2018-06-03T12:47:02.827Z,37.77
2018-06-03T12:49:31.935Z,40.00
2018-06-03T12:52:01.438Z,39.03
2018-06-03T12:54:31.448Z,37.60
2018-06-03T12:57:00.197Z,37.33
2018-06-03T12:59:28.980Z,36.63
2018-06-03T13:01:57.770Z,36.90
2018-06-03T13:04:27.081Z,37.17
2018-06-03T13:06:56.298Z,35.97
2018-06-03T13:09:26.307Z,37.63
2018-06-03T13:11:55.028Z,38.27
2018-06-03T13:14:24.261Z,36.77
2018-06-03T13:16:53.195Z,35.50
2018-06-03T13:19:23.895Z,35.47
2018-06-03T13:21:52.951Z,36.20
2018-06-03T13:24:22.848Z,36.50
2018-06-03T13:26:52.836Z,37.13
2018-06-03T13:29:22.257Z,38.37
2018-06-03T13:31:51.402Z,35.07
2018-06-03T13:34:21.477Z,36.87
2018-06-03T13:36:51.750Z,36.90
2018-06-03T13:39:21.351Z,36.30
2018-06-03T13:41:50.240Z,35.23
2018-06-03T13:44:19.373Z,37.10
2018-06-03T13:46:48.400Z,37.13
2018-06-03T13:49:17.486Z,37.70
2018-06-03T13:51:46.458Z,37.80
2018-06-03T13:54:15.661Z,35.90
2018-06-03T13:57:36.317Z,34.40
2018-06-03T14:00:08.737Z,34.37
2018-06-03T14:02:41.214Z,35.03
2018-06-03T14:05:12.822Z,34.50
2018-06-03T14:07:45.345Z,34.60
2018-06-03T14:10:18.251Z,37.20
2018-06-03T14:12:51.099Z,35.97
2018-06-03T14:15:22.916Z,37.23
2018-06-03T14:17:54.451Z,35.70
2018-06-03T14:20:27.225Z,38.07
2018-06-03T14:23:03.844Z,36.50
2018-06-03T14:25:36.114Z,36.47
2018-06-03T14:28:09.038Z,37.37
2018-06-03T14:30:40.629Z,36.37
2018-06-03T14:33:12.401Z,36.07
2018-06-03T14:35:43.313Z,37.30
2018-06-03T14:38:15.118Z,36.93
2018-06-03T14:40:46.668Z,37.90
2018-06-03T14:43:19.223Z,37.23
2018-06-03T14:45:51.312Z,39.20
2018-06-03T14:48:21.929Z,38.27
2018-06-03T14:50:52.470Z,37.20
2018-06-03T14:53:25.885Z,38.70
2018-06-03T14:55:57.274Z,38.27
2018-06-03T14:58:28.913Z,37.33
2018-06-03T15:01:00.406Z,37.97
2018-06-03T15:03:32.513Z,40.63
2018-06-03T15:06:04.457Z,37.80
2018-06-03T15:08:36.455Z,40.73
2018-06-03T15:11:08.037Z,41.03
2018-06-03T15:13:40.381Z,38.30
2018-06-03T15:16:12.015Z,38.10
2018-06-03T15:18:44.170Z,37.20
2018-06-03T15:21:16.686Z,40.30
2018-06-03T15:23:47.676Z,42.07
2018-06-03T15:26:19.348Z,38.70
2018-06-03T15:28:51.514Z,38.50
2018-06-03T15:31:23.057Z,38.07
2018-06-03T15:33:54.896Z,39.10
2018-06-03T15:36:26.850Z,40.73
2018-06-03T15:38:59.741Z,36.57
2018-06-03T15:41:31.692Z,37.47
2018-06-03T15:44:03.958Z,40.50
2018-06-03T15:46:35.758Z,37.50
2018-06-03T15:49:07.727Z,35.53
2018-06-03T15:51:40.278Z,35.83
2018-06-03T15:54:11.256Z,39.50
2018-06-03T15:56:42.940Z,38.03
2018-06-03T15:59:15.028Z,37.20
2018-06-03T16:01:47.347Z,36.77
2018-06-03T16:04:19.237Z,36.30
2018-06-03T16:06:51.099Z,37.53
2018-06-03T16:09:23.199Z,35.43
2018-06-03T16:11:54.743Z,37.60
2018-06-03T16:14:25.899Z,35.33
2018-06-03T16:16:57.799Z,36.50
2018-06-03T16:19:29.750Z,36.40
2018-06-03T16:22:03.029Z,36.60
2018-06-03T16:24:35.110Z,35.97
2018-06-03T16:27:06.906Z,37.70
2018-06-03T16:29:38.818Z,37.77
2018-06-03T16:32:10.494Z,36.63
2018-06-03T16:34:42.435Z,37.13
2018-06-03T16:37:14.173Z,34.73
2018-06-03T16:39:46.213Z,34.70
2018-06-03T16:42:18.052Z,36.27
2018-06-03T16:44:49.975Z,35.97
2018-06-03T16:47:21.848Z,36.10
2018-06-03T16:49:53.631Z,35.50
2018-06-03T16:52:25.200Z,36.40
2018-06-03T16:54:56.965Z,35.00
2018-06-03T16:57:27.735Z,35.90
2018-06-03T16:59:59.817Z,36.73
2018-06-03T17:02:32.324Z,34.10
2018-06-03T17:05:04.270Z,37.17
2018-06-03T17:07:35.845Z,36.57
2018-06-03T17:10:07.635Z,35.53
2018-06-03T17:12:39.499Z,37.07
2018-06-03T17:15:10.406Z,39.27
2018-06-03T17:17:42.242Z,37.23
2018-06-03T17:20:14.343Z,36.43
2018-06-03T17:22:47.901Z,36.37
2018-06-03T17:25:18.795Z,38.30
2018-06-03T17:27:49.915Z,37.07
2018-06-03T17:30:21.811Z,36.00
2018-06-03T17:32:53.545Z,36.03
2018-06-03T17:35:25.586Z,35.70
2018-06-03T17:37:57.539Z,36.30
2018-06-03T17:40:28.601Z,33.93
2018-06-03T17:43:00.486Z,36.20
2018-06-03T17:45:32.490Z,34.87
2018-06-03T17:48:04.026Z,35.77
2018-06-03T17:50:36.464Z,36.50
2018-06-03T17:53:07.967Z,34.10
2018-06-03T17:55:39.674Z,35.23
2018-06-03T17:58:11.493Z,35.30
2018-06-03T18:00:43.139Z,34.97
2018-06-03T18:03:13.829Z,35.80
2018-06-03T18:05:45.890Z,35.30
2018-06-03T18:08:17.476Z,35.60
2018-06-03T18:10:49.554Z,34.23
2018-06-03T18:13:20.234Z,37.23
2018-06-03T18:15:52.198Z,33.50
2018-06-03T18:18:23.999Z,35.47
2018-06-03T18:20:55.710Z,36.50
2018-06-03T18:23:28.782Z,35.63
2018-06-03T18:26:01.190Z,37.53
2018-06-03T18:28:32.818Z,37.83
2018-06-03T18:31:03.684Z,35.37
2018-06-03T18:33:35.380Z,34.90
2018-06-03T18:36:07.172Z,36.63
2018-06-03T18:38:38.805Z,36.60
2018-06-03T18:41:10.857Z,36.23
2018-06-03T18:43:42.281Z,36.17
2018-06-03T18:46:14.135Z,33.77
2018-06-03T18:48:45.911Z,35.00
2018-06-03T18:51:17.978Z,34.03
2018-06-03T18:53:50.296Z,34.73
2018-06-03T18:56:22.660Z,33.03
2018-06-03T18:58:54.386Z,35.60
2018-06-03T19:01:26.715Z,35.70
2018-06-03T19:03:58.477Z,33.77
2018-06-03T19:06:30.416Z,35.23
2018-06-03T19:09:02.286Z,33.90
2018-06-03T19:11:34.220Z,34.80
2018-06-03T19:14:05.567Z,35.13
2018-06-03T19:16:37.751Z,34.80
2018-06-03T19:19:09.372Z,35.43
2018-06-03T19:21:41.335Z,35.70
2018-06-03T19:24:14.247Z,35.27
2018-06-03T19:26:45.240Z,33.70
2018-06-03T19:29:17.331Z,34.67
2018-06-03T19:31:49.431Z,33.43
2018-06-03T19:34:21.074Z,34.73
2018-06-03T19:36:53.087Z,36.07
2018-06-03T19:39:24.835Z,33.93
2018-06-03T19:41:56.734Z,35.33
2018-06-03T19:44:28.358Z,35.70
2018-06-03T19:47:00.163Z,36.57
2018-06-03T19:49:32.009Z,34.77
2018-06-03T19:52:04.002Z,35.70
2018-06-03T19:54:36.046Z,35.97
2018-06-03T19:57:08.122Z,37.57
2018-06-03T19:59:39.918Z,35.77
2018-06-03T20:02:11.881Z,34.80
2018-06-03T20:04:43.451Z,36.67
2018-06-03T20:07:15.414Z,34.70
2018-06-03T20:09:47.025Z,34.50
2018-06-03T20:12:19.126Z,34.50
2018-06-03T20:14:50.809Z,36.37
2018-06-03T20:17:22.001Z,33.60
2018-06-03T20:19:53.878Z,35.87
2018-06-03T20:22:26.292Z,34.33
2018-06-03T20:24:58.627Z,35.53
2018-06-03T20:27:29.529Z,35.93
2018-06-03T20:30:01.269Z,35.37
2018-06-03T20:32:33.289Z,36.20
2018-06-03T20:35:04.032Z,33.40
2018-06-03T20:37:36.037Z,35.07
2018-06-03T20:40:07.652Z,32.63
2018-06-03T20:42:39.693Z,33.77
2018-06-03T20:45:10.501Z,35.33
2018-06-03T20:47:42.315Z,35.73
2018-06-03T20:50:14.022Z,33.50
2018-06-03T20:52:45.749Z,36.63
2018-06-03T20:55:17.391Z,36.10
2018-06-03T20:57:49.446Z,35.97
2018-06-03T21:00:20.138Z,36.17
2018-06-03T21:02:52.127Z,38.80
2018-06-03T21:05:23.649Z,36.00
2018-06-03T21:07:55.393Z,38.33
2018-06-03T21:10:26.998Z,37.50
2018-06-03T21:12:58.957Z,37.47
2018-06-03T21:15:30.654Z,35.70
2018-06-03T21:18:02.683Z,36.70
2018-06-03T21:20:34.274Z,35.50
2018-06-03T21:23:06.029Z,34.90
2018-06-03T21:25:39.606Z,35.87
2018-06-03T21:28:11.495Z,35.17
2018-06-03T21:30:43.381Z,35.23
2018-06-03T21:33:14.348Z,34.73
2018-06-03T21:35:46.189Z,35.23
2018-06-03T21:38:18.211Z,34.13
2018-06-03T21:40:49.905Z,35.27
2018-06-03T21:43:22.063Z,32.83
2018-06-03T21:45:53.710Z,34.33
2018-06-03T21:48:25.720Z,35.17
2018-06-03T21:50:57.610Z,36.77
2018-06-03T21:53:29.607Z,35.67
2018-06-03T21:56:01.446Z,36.30
2018-06-03T21:58:32.484Z,36.33
2018-06-03T22:01:04.241Z,37.97
2018-06-03T22:03:36.347Z,36.50
2018-06-03T22:06:08.127Z,34.63
2018-06-03T22:08:39.139Z,34.67
2018-06-03T22:11:11.044Z,35.10
2018-06-03T22:13:43.019Z,33.47
2018-06-03T22:16:14.833Z,36.20
2018-06-03T22:18:46.616Z,36.27
2018-06-03T22:21:17.249Z,33.80
2018-06-03T22:23:48.160Z,33.77
2018-06-03T22:26:21.231Z,34.53
2018-06-03T22:28:52.121Z,35.30
2018-06-03T22:31:23.822Z,32.43
2018-06-03T22:33:55.789Z,33.90
2018-06-03T22:36:27.499Z,35.90
2018-06-03T22:38:58.614Z,34.40
2018-06-03T22:41:30.554Z,34.00
2018-06-03T22:44:02.457Z,35.20
2018-06-03T22:46:34.349Z,34.27
2018-06-03T22:49:07.485Z,33.00
2018-06-03T22:51:39.126Z,32.33
2018-06-03T22:54:10.106Z,32.97
2018-06-03T22:56:59.799Z,31.43
2018-06-03T22:59:30.850Z,32.10
2018-06-03T23:02:02.638Z,34.00
2018-06-03T23:04:34.720Z,32.60
2018-06-03T23:07:06.691Z,31.90
2018-06-03T23:09:39.023Z,33.43
2018-06-03T23:12:10.967Z,31.27
2018-06-03T23:14:43.121Z,33.70
2018-06-03T23:17:15.021Z,35.70
2018-06-03T23:19:47.255Z,35.90
2018-06-03T23:22:19.153Z,35.10
2018-06-03T23:24:51.349Z,35.57
2018-06-03T23:27:23.189Z,33.77
2018-06-03T23:29:55.490Z,34.00
2018-06-03T23:32:27.390Z,32.87
2018-06-03T23:34:59.487Z,32.90
2018-06-03T23:37:31.616Z,34.00
2018-06-03T23:40:03.750Z,30.90
2018-06-03T23:42:35.550Z,32.50
2018-06-03T23:45:07.862Z,32.47
2018-06-03T23:47:39.690Z,31.60
2018-06-03T23:50:11.779Z,33.60
2018-06-03T23:52:44.267Z,35.23
2018-06-03T23:55:16.415Z,32.03
2018-06-03T23:57:48.158Z,34.17
